Rio Pico, Argentina
Current Conditions -  °F | °C
As of 7:00 PM on Friday 28 Nov 2014 (Local Time) from SCAP Reporting Station
Overcast Overcast  
Wind Chill: 41°   Ceiling: 4300
Heat Index: 46°   Visibility: NA
Dew Point: 37°   Wind: 12mph
Humidity: 71%   Direction: 240°WSW
Pressure: 29.97"   Gusts: NA
Location:  44.2°S, 71.35°W
Report Text: SCAP 282200Z AUTO 24010KT 200V270 //// // OVC043 08/03 Q1015
Loading
Personal Weather Stations






























Interactive Weather Map New forecast layout! Learn more

10-Day Weather Forecast

Advertisements
Track Severe Weather on mobile